createdAt,value
2022-12-18T00:00:02.905Z,32.51
2022-12-18T00:02:48.011Z,30.57
2022-12-18T00:05:33.276Z,31.88
2022-12-18T00:08:18.118Z,31.95
2022-12-18T00:11:03.054Z,30.62
2022-12-18T00:13:52.039Z,30.75
2022-12-18T00:16:36.915Z,30.46
2022-12-18T00:19:21.849Z,29.99
2022-12-18T00:22:06.715Z,30.69
2022-12-18T00:24:51.590Z,31.59
2022-12-18T00:27:36.369Z,31.46
2022-12-18T00:30:21.232Z,31.32
2022-12-18T00:33:06.123Z,28.96
2022-12-18T00:35:50.971Z,30.09
2022-12-18T00:38:35.881Z,30.25
2022-12-18T00:41:20.683Z,31.46
2022-12-18T00:44:05.598Z,29.51
2022-12-18T00:46:50.512Z,28.65
2022-12-18T00:49:35.513Z,29.49
2022-12-18T00:52:20.293Z,31.60
2022-12-18T00:55:06.553Z,31.20
2022-12-18T00:57:51.710Z,30.69
2022-12-18T01:00:36.646Z,30.89
2022-12-18T01:03:21.472Z,31.36
2022-12-18T01:06:06.320Z,31.80
2022-12-18T01:08:51.469Z,34.20
2022-12-18T01:11:36.222Z,33.82
2022-12-18T01:14:21.228Z,33.82
2022-12-18T01:17:06.140Z,33.87
2022-12-18T01:19:51.201Z,32.78
2022-12-18T01:22:36.033Z,33.03
2022-12-18T01:25:20.853Z,32.88
2022-12-18T01:28:05.923Z,33.53
2022-12-18T01:30:50.709Z,34.14
2022-12-18T01:33:35.714Z,33.04
2022-12-18T01:36:20.965Z,34.07
2022-12-18T01:39:06.017Z,33.58
2022-12-18T01:41:50.877Z,34.31
2022-12-18T01:44:35.801Z,34.18
2022-12-18T01:47:20.840Z,35.90
2022-12-18T01:50:05.755Z,36.22
2022-12-18T01:52:50.595Z,35.64
2022-12-18T01:55:35.583Z,34.34
2022-12-18T01:58:20.414Z,35.68
2022-12-18T02:01:05.474Z,35.61
2022-12-18T02:03:50.302Z,36.16
2022-12-18T02:06:35.079Z,35.45
2022-12-18T02:09:19.876Z,35.27
2022-12-18T02:12:04.760Z,36.07
2022-12-18T02:14:49.665Z,35.94
2022-12-18T02:17:34.526Z,34.05
2022-12-18T02:20:19.521Z,34.42
2022-12-18T02:23:04.450Z,34.86
2022-12-18T02:25:49.265Z,35.81
2022-12-18T02:28:34.108Z,35.26
2022-12-18T02:31:19.040Z,33.50
2022-12-18T02:34:03.955Z,35.03
2022-12-18T02:36:49.037Z,33.52
2022-12-18T02:39:33.881Z,33.74
2022-12-18T02:42:18.991Z,34.92
2022-12-18T02:45:03.974Z,35.22
2022-12-18T02:47:48.861Z,33.93
2022-12-18T02:50:33.797Z,34.13
2022-12-18T02:53:18.760Z,34.56
2022-12-18T02:56:03.533Z,34.26
2022-12-18T02:58:48.537Z,33.52
2022-12-18T03:01:33.727Z,33.65
2022-12-18T03:04:19.005Z,34.50
2022-12-18T03:07:03.997Z,33.18
2022-12-18T03:09:48.889Z,33.53
2022-12-18T03:12:33.882Z,32.95
2022-12-18T03:15:18.789Z,33.56
2022-12-18T03:18:03.681Z,33.76
2022-12-18T03:20:48.605Z,33.15
2022-12-18T03:23:33.530Z,33.52
2022-12-18T03:26:18.584Z,33.20
2022-12-18T03:29:03.426Z,33.20
2022-12-18T03:31:48.460Z,33.81
2022-12-18T03:34:33.305Z,32.90
2022-12-18T03:37:18.406Z,33.65
2022-12-18T03:40:03.295Z,34.26
2022-12-18T03:42:48.338Z,34.81
2022-12-18T03:45:33.239Z,34.95
2022-12-18T03:48:18.190Z,34.01
2022-12-18T03:51:03.180Z,34.34
2022-12-18T03:53:48.100Z,33.79
2022-12-18T03:56:33.012Z,33.68
2022-12-18T03:59:17.962Z,34.14
2022-12-18T04:02:02.895Z,32.64
2022-12-18T04:04:47.949Z,32.34
2022-12-18T04:07:32.956Z,32.42
2022-12-18T04:10:18.001Z,34.17
2022-12-18T04:13:02.919Z,33.57
2022-12-18T04:15:47.916Z,33.76
2022-12-18T04:18:32.798Z,33.49
2022-12-18T04:21:17.802Z,32.89
2022-12-18T04:24:02.579Z,34.06
2022-12-18T04:26:47.576Z,33.78
2022-12-18T04:29:32.262Z,33.43
2022-12-18T04:32:17.253Z,34.32
2022-12-18T04:35:02.067Z,33.80
2022-12-18T04:37:47.024Z,32.45
2022-12-18T04:40:31.911Z,32.42
2022-12-18T04:43:16.880Z,32.64
2022-12-18T04:46:01.816Z,33.27
2022-12-18T04:48:46.554Z,33.80
2022-12-18T04:51:31.491Z,31.75
2022-12-18T04:54:16.376Z,32.57
2022-12-18T04:57:01.269Z,33.10
2022-12-18T04:59:46.203Z,34.23
2022-12-18T05:02:31.162Z,34.60
2022-12-18T05:05:16.523Z,34.46
2022-12-18T05:08:01.342Z,33.89
2022-12-18T05:10:46.895Z,31.55
2022-12-18T05:13:31.777Z,34.11
2022-12-18T05:16:16.845Z,34.89
2022-12-18T05:19:01.627Z,35.04
2022-12-18T05:21:46.665Z,34.68
2022-12-18T05:24:31.608Z,34.09
2022-12-18T05:27:16.609Z,34.00
2022-12-18T05:30:01.462Z,33.27
2022-12-18T05:32:46.367Z,33.44
2022-12-18T05:35:31.334Z,33.73
2022-12-18T05:38:16.251Z,34.32
2022-12-18T05:41:01.134Z,34.63
2022-12-18T05:43:45.981Z,35.57
2022-12-18T05:46:30.991Z,33.71
2022-12-18T05:49:15.949Z,35.36
2022-12-18T05:52:00.701Z,36.04
2022-12-18T05:54:45.670Z,37.23
2022-12-18T05:57:30.677Z,36.31
2022-12-18T06:00:15.644Z,35.24
2022-12-18T06:03:00.570Z,34.99
2022-12-18T06:05:45.489Z,36.21
2022-12-18T06:08:31.504Z,34.99
2022-12-18T06:11:16.481Z,34.04
2022-12-18T06:14:01.373Z,35.26
2022-12-18T06:16:46.260Z,35.83
2022-12-18T06:19:31.310Z,35.45
2022-12-18T06:22:16.261Z,36.25
2022-12-18T06:25:01.318Z,36.95
2022-12-18T06:27:46.788Z,34.51
2022-12-18T06:30:31.618Z,35.30
2022-12-18T06:33:16.711Z,35.16
2022-12-18T06:36:01.544Z,33.92
2022-12-18T06:38:47.063Z,33.50
2022-12-18T06:41:32.007Z,32.48
2022-12-18T06:44:16.968Z,32.17
2022-12-18T06:47:01.648Z,30.57
2022-12-18T06:49:46.511Z,31.35
2022-12-18T06:52:31.483Z,31.25
2022-12-18T06:55:16.393Z,33.02
2022-12-18T06:58:01.263Z,31.80
2022-12-18T07:00:46.178Z,32.00
2022-12-18T07:03:31.128Z,30.98
2022-12-18T07:06:15.868Z,30.76
2022-12-18T07:09:00.729Z,30.44
2022-12-18T07:11:45.537Z,29.58
2022-12-18T07:14:30.492Z,29.46
2022-12-18T07:17:15.371Z,29.22
2022-12-18T07:20:00.303Z,25.89
2022-12-18T07:22:45.334Z,26.28
2022-12-18T07:25:30.261Z,26.49
2022-12-18T07:28:17.557Z,27.57
2022-12-18T07:31:02.468Z,27.40
2022-12-18T07:33:47.405Z,26.42
2022-12-18T07:36:32.249Z,26.52
2022-12-18T07:39:17.057Z,25.41
2022-12-18T07:42:01.977Z,25.47
2022-12-18T07:44:46.885Z,25.54
2022-12-18T07:47:31.889Z,25.35
2022-12-18T07:50:16.635Z,27.27
2022-12-18T07:53:01.596Z,27.35
2022-12-18T07:56:25.000Z,27.31
2022-12-18T07:58:51.403Z,26.00
2022-12-18T08:01:36.528Z,26.33
2022-12-18T08:04:21.744Z,26.38
2022-12-18T08:07:06.605Z,26.87
2022-12-18T08:09:51.476Z,26.07
2022-12-18T08:12:36.403Z,26.59
2022-12-18T08:15:21.271Z,26.63
2022-12-18T08:18:10.122Z,24.85
2022-12-18T08:20:57.525Z,25.17
2022-12-18T08:23:43.502Z,25.45
2022-12-18T08:26:28.979Z,25.49
2022-12-18T08:29:17.319Z,25.20
2022-12-18T08:32:06.450Z,26.09
2022-12-18T08:34:51.352Z,26.37
2022-12-18T08:37:36.188Z,24.97
2022-12-18T08:40:21.106Z,27.45
2022-12-18T08:43:05.970Z,28.74
2022-12-18T08:45:51.064Z,29.46
2022-12-18T08:48:35.875Z,29.02
2022-12-18T08:51:20.792Z,29.17
2022-12-18T08:54:06.483Z,28.04
2022-12-18T08:56:51.499Z,28.89
2022-12-18T08:59:36.363Z,27.47
2022-12-18T09:02:21.396Z,26.36
2022-12-18T09:05:06.680Z,25.05
2022-12-18T09:07:51.529Z,25.68
2022-12-18T09:10:41.695Z,25.15
2022-12-18T09:13:27.953Z,25.53
2022-12-18T09:16:12.797Z,25.15
2022-12-18T09:18:57.714Z,23.94
2022-12-18T09:21:47.771Z,23.99
2022-12-18T09:24:33.541Z,23.93
2022-12-18T09:27:18.324Z,26.77
2022-12-18T09:30:03.632Z,26.06
2022-12-18T09:32:48.476Z,28.08
2022-12-18T09:35:33.466Z,25.85
2022-12-18T09:38:18.828Z,24.83
2022-12-18T09:41:03.973Z,26.28
2022-12-18T09:43:48.881Z,25.83
2022-12-18T09:46:33.778Z,26.74
2022-12-18T09:49:18.679Z,27.18
2022-12-18T09:52:04.115Z,26.31
2022-12-18T09:54:49.144Z,26.16
2022-12-18T09:57:33.984Z,26.99
2022-12-18T10:00:18.895Z,27.41
2022-12-18T10:03:04.048Z,24.65
2022-12-18T10:05:49.285Z,25.67
2022-12-18T10:08:34.143Z,25.23
2022-12-18T10:11:19.096Z,24.75
2022-12-18T10:14:04.070Z,25.25
2022-12-18T10:16:48.938Z,26.33
2022-12-18T10:19:34.025Z,26.26
2022-12-18T10:22:19.075Z,26.10
2022-12-18T10:25:04.333Z,25.71
2022-12-18T10:27:49.184Z,25.48
2022-12-18T10:30:34.100Z,25.84
2022-12-18T10:33:18.958Z,26.18
2022-12-18T10:36:03.893Z,26.10
2022-12-18T10:38:48.839Z,25.93
2022-12-18T10:41:33.728Z,26.44
2022-12-18T10:44:18.601Z,27.16
2022-12-18T10:47:06.183Z,26.74
2022-12-18T10:49:53.902Z,26.85
2022-12-18T10:52:45.058Z,29.57
2022-12-18T10:55:32.969Z,28.79
2022-12-18T10:58:22.183Z,29.61
2022-12-18T11:01:10.316Z,28.75
2022-12-18T11:04:00.313Z,28.97
2022-12-18T11:06:47.242Z,28.53
2022-12-18T11:09:32.139Z,29.53
2022-12-18T11:12:17.148Z,30.13
2022-12-18T11:15:02.105Z,28.39
2022-12-18T11:17:46.943Z,27.51
2022-12-18T11:20:31.884Z,28.20
2022-12-18T11:23:16.751Z,27.75
2022-12-18T11:26:01.706Z,28.12
2022-12-18T11:28:46.681Z,26.89
2022-12-18T11:31:32.092Z,26.68
2022-12-18T11:34:32.448Z,26.97
2022-12-18T11:37:17.711Z,26.07
2022-12-18T11:40:02.697Z,25.56
2022-12-18T11:42:47.510Z,26.27
2022-12-18T11:45:32.465Z,28.33
2022-12-18T11:48:17.429Z,27.21
2022-12-18T11:51:02.425Z,26.03
2022-12-18T11:53:47.276Z,25.32
2022-12-18T11:56:32.143Z,26.04
2022-12-18T11:59:17.115Z,26.02
2022-12-18T12:02:02.053Z,27.14
2022-12-18T12:04:48.460Z,25.76
2022-12-18T12:07:33.370Z,26.23
2022-12-18T12:10:18.307Z,26.86
2022-12-18T12:13:03.138Z,26.13
2022-12-18T12:15:48.101Z,26.50
2022-12-18T12:18:32.889Z,26.33
2022-12-18T12:21:17.741Z,27.24
2022-12-18T12:24:02.860Z,25.08
2022-12-18T12:26:47.704Z,24.93
2022-12-18T12:29:32.529Z,24.94
2022-12-18T12:32:17.334Z,24.41
2022-12-18T12:35:07.770Z,24.12
2022-12-18T12:37:54.451Z,24.76
2022-12-18T12:41:02.394Z,25.21
2022-12-18T12:43:50.675Z,23.84
2022-12-18T12:46:36.168Z,24.31
2022-12-18T12:49:21.671Z,25.21
2022-12-18T12:52:08.147Z,24.15
2022-12-18T12:54:52.934Z,24.71
2022-12-18T12:57:38.373Z,25.36
2022-12-18T13:00:23.295Z,25.35
2022-12-18T13:03:08.167Z,24.78
2022-12-18T13:05:53.591Z,24.79
2022-12-18T13:08:39.111Z,24.93
2022-12-18T13:11:23.941Z,24.34
2022-12-18T13:14:09.821Z,25.09
2022-12-18T13:16:56.270Z,25.85
2022-12-18T13:19:41.724Z,25.59
2022-12-18T13:22:26.712Z,24.59
2022-12-18T13:25:11.737Z,25.37
2022-12-18T13:27:56.715Z,25.27
2022-12-18T13:30:41.675Z,24.82
2022-12-18T13:33:26.453Z,26.55
2022-12-18T13:36:11.899Z,26.40
2022-12-18T13:38:56.750Z,25.93
2022-12-18T13:41:42.146Z,25.52
2022-12-18T13:44:27.058Z,24.87
2022-12-18T13:47:12.005Z,24.58
2022-12-18T13:49:58.639Z,25.55
2022-12-18T13:52:43.526Z,24.14
2022-12-18T13:55:28.466Z,25.20
2022-12-18T13:58:13.297Z,25.22
2022-12-18T14:00:58.311Z,24.83
2022-12-18T14:03:43.665Z,24.53
2022-12-18T14:06:29.573Z,25.24
2022-12-18T14:09:20.339Z,24.69
2022-12-18T14:12:06.550Z,24.19
2022-12-18T14:14:52.536Z,25.12
2022-12-18T14:17:40.243Z,25.34
2022-12-18T14:20:25.088Z,26.12
2022-12-18T14:23:09.888Z,25.78
2022-12-18T14:25:54.940Z,25.66
2022-12-18T14:28:39.676Z,26.28
2022-12-18T14:31:24.711Z,25.82
2022-12-18T14:34:09.525Z,25.78
2022-12-18T14:36:54.522Z,25.78
2022-12-18T14:39:39.382Z,25.64
2022-12-18T14:42:24.281Z,26.19
2022-12-18T14:45:16.180Z,25.69
2022-12-18T14:48:01.137Z,26.85
2022-12-18T14:50:46.030Z,27.66
2022-12-18T14:53:30.884Z,26.89
2022-12-18T14:56:15.687Z,27.41
2022-12-18T14:59:00.526Z,26.86
2022-12-18T15:01:45.566Z,26.75
2022-12-18T15:04:30.929Z,26.36
2022-12-18T15:07:15.860Z,27.10
2022-12-18T15:10:02.212Z,27.05
2022-12-18T15:12:47.347Z,27.45
2022-12-18T15:15:32.341Z,27.66
2022-12-18T15:18:17.351Z,28.97
2022-12-18T15:21:02.349Z,27.02
2022-12-18T15:23:47.289Z,28.21
2022-12-18T15:26:32.387Z,27.03
2022-12-18T15:29:17.455Z,27.10
2022-12-18T15:32:02.746Z,27.58
2022-12-18T15:34:47.668Z,28.57
2022-12-18T15:37:32.734Z,28.54
2022-12-18T15:40:18.023Z,27.52
2022-12-18T15:43:03.055Z,29.55
2022-12-18T15:45:48.072Z,29.64
2022-12-18T15:48:33.484Z,30.00
2022-12-18T15:51:18.475Z,30.37
2022-12-18T15:54:03.386Z,32.62
2022-12-18T15:56:48.357Z,32.98
2022-12-18T15:59:33.240Z,34.11
2022-12-18T16:02:18.397Z,32.97
2022-12-18T16:05:03.564Z,33.69
2022-12-18T16:07:48.836Z,34.36
2022-12-18T16:10:33.999Z,34.34
2022-12-18T16:13:18.926Z,33.50
2022-12-18T16:16:03.920Z,34.30
2022-12-18T16:18:48.682Z,34.84
2022-12-18T16:21:34.236Z,32.04
2022-12-18T16:24:19.576Z,33.30
2022-12-18T16:27:04.591Z,33.12
2022-12-18T16:29:49.552Z,33.08
2022-12-18T16:32:34.513Z,33.19
2022-12-18T16:35:19.576Z,33.43
2022-12-18T16:38:04.335Z,34.40
2022-12-18T16:40:49.296Z,34.82
2022-12-18T16:43:34.224Z,33.12
2022-12-18T16:46:19.231Z,31.77
2022-12-18T16:49:04.189Z,31.48
2022-12-18T16:51:49.315Z,33.37
2022-12-18T16:54:34.521Z,32.09
2022-12-18T16:57:19.772Z,33.46
2022-12-18T17:00:06.333Z,34.39
2022-12-18T17:02:51.765Z,31.42
2022-12-18T17:05:37.024Z,32.86
2022-12-18T17:08:21.952Z,31.53
2022-12-18T17:11:07.022Z,29.61
2022-12-18T17:13:52.032Z,29.20
2022-12-18T17:16:36.878Z,30.95
2022-12-18T17:19:22.845Z,31.08
2022-12-18T17:22:07.697Z,30.92
2022-12-18T17:24:52.614Z,31.46
2022-12-18T17:27:37.559Z,31.85
2022-12-18T17:30:22.454Z,34.40
2022-12-18T17:33:07.514Z,33.06
2022-12-18T17:35:52.463Z,35.92
2022-12-18T17:38:37.457Z,35.83
2022-12-18T17:41:22.292Z,34.69
2022-12-18T17:44:07.143Z,34.12
2022-12-18T17:46:52.269Z,35.52
2022-12-18T17:49:37.535Z,34.73
2022-12-18T17:52:22.584Z,34.00
2022-12-18T17:55:07.541Z,34.43
2022-12-18T17:57:52.419Z,33.49
2022-12-18T18:00:37.183Z,36.09
2022-12-18T18:03:22.439Z,34.85
2022-12-18T18:06:07.595Z,33.73
2022-12-18T18:08:52.563Z,33.51
2022-12-18T18:11:37.569Z,35.05
2022-12-18T18:14:22.456Z,35.94
2022-12-18T18:17:07.931Z,37.21
2022-12-18T18:19:52.962Z,37.37
2022-12-18T18:22:38.502Z,38.11
2022-12-18T18:25:23.248Z,36.99
2022-12-18T18:28:08.674Z,39.71
2022-12-18T18:30:53.590Z,37.92
2022-12-18T18:33:38.899Z,36.98
2022-12-18T18:36:24.178Z,33.76
2022-12-18T18:39:09.091Z,33.42
2022-12-18T18:41:55.721Z,33.02
2022-12-18T18:44:44.433Z,34.68
2022-12-18T18:47:32.236Z,34.16
2022-12-18T18:50:17.281Z,33.67
2022-12-18T18:53:02.315Z,33.98
2022-12-18T18:55:59.083Z,34.72
2022-12-18T18:58:52.565Z,33.96
2022-12-18T19:01:37.591Z,35.37
2022-12-18T19:04:23.041Z,35.74
2022-12-18T19:07:08.153Z,37.15
2022-12-18T19:09:53.032Z,36.17
2022-12-18T19:12:39.547Z,34.29
2022-12-18T19:15:25.490Z,33.51
2022-12-18T19:18:10.424Z,36.28
2022-12-18T19:20:55.533Z,35.88
2022-12-18T19:23:40.819Z,34.43
2022-12-18T19:26:28.061Z,33.36
2022-12-18T19:29:13.189Z,32.88
2022-12-18T19:31:58.279Z,33.70
2022-12-18T19:34:43.376Z,34.53
2022-12-18T19:37:30.718Z,34.08
2022-12-18T19:40:15.873Z,35.72
2022-12-18T19:43:01.290Z,34.10
2022-12-18T19:45:46.351Z,35.74
2022-12-18T19:48:31.234Z,35.09
2022-12-18T19:51:16.225Z,36.49
2022-12-18T19:54:01.684Z,34.53
2022-12-18T19:56:47.782Z,32.83
2022-12-18T19:59:32.782Z,33.98
2022-12-18T20:02:18.511Z,33.55
2022-12-18T20:05:03.934Z,33.01
2022-12-18T20:07:49.050Z,32.05
2022-12-18T20:10:33.906Z,33.39
2022-12-18T20:13:18.900Z,33.66
2022-12-18T20:16:03.768Z,32.57
2022-12-18T20:18:48.870Z,34.71
2022-12-18T20:21:34.274Z,32.75
2022-12-18T20:24:19.414Z,32.73
2022-12-18T20:27:04.534Z,32.19
2022-12-18T20:29:49.586Z,32.60
2022-12-18T20:32:37.242Z,32.49
2022-12-18T20:35:22.485Z,32.58
2022-12-18T20:38:08.327Z,31.69
2022-12-18T20:40:54.507Z,35.96
2022-12-18T20:43:39.754Z,38.49
2022-12-18T20:46:24.942Z,37.89
2022-12-18T20:49:09.773Z,36.81
2022-12-18T20:51:54.508Z,36.87
2022-12-18T20:54:39.382Z,36.12
2022-12-18T20:57:24.224Z,35.84
2022-12-18T21:00:09.219Z,35.69
2022-12-18T21:02:56.237Z,35.77
2022-12-18T21:05:41.593Z,35.45
2022-12-18T21:08:26.440Z,35.17
2022-12-18T21:11:11.440Z,34.87
2022-12-18T21:13:56.417Z,34.88
2022-12-18T21:16:41.278Z,34.87
2022-12-18T21:19:26.209Z,33.48
2022-12-18T21:22:10.957Z,34.11
2022-12-18T21:24:56.416Z,33.78
2022-12-18T21:27:41.316Z,34.54
2022-12-18T21:30:26.277Z,33.67
2022-12-18T21:33:11.189Z,34.59
2022-12-18T21:35:56.134Z,33.71
2022-12-18T21:38:41.273Z,35.35
2022-12-18T21:41:26.717Z,35.41
2022-12-18T21:44:11.640Z,34.28
2022-12-18T21:47:02.445Z,35.04
2022-12-18T21:49:54.644Z,34.36
2022-12-18T21:52:39.503Z,34.85
2022-12-18T21:55:24.527Z,34.04
2022-12-18T21:58:09.441Z,35.24
2022-12-18T22:00:54.318Z,34.95
2022-12-18T22:03:39.360Z,34.44
2022-12-18T22:06:24.066Z,34.47
2022-12-18T22:09:09.296Z,35.21
2022-12-18T22:11:54.083Z,34.27
2022-12-18T22:14:38.957Z,34.43
2022-12-18T22:17:23.769Z,34.49
2022-12-18T22:20:09.160Z,35.29
2022-12-18T22:22:54.181Z,33.84
2022-12-18T22:25:39.902Z,33.91
2022-12-18T22:28:25.189Z,35.04
2022-12-18T22:31:10.061Z,34.36
2022-12-18T22:33:54.965Z,34.61
2022-12-18T22:36:40.048Z,34.55
2022-12-18T22:39:25.063Z,32.77
2022-12-18T22:42:10.603Z,33.16
2022-12-18T22:44:55.416Z,33.56
2022-12-18T22:47:40.469Z,34.47
2022-12-18T22:50:25.454Z,34.23
2022-12-18T22:53:10.482Z,34.27
2022-12-18T22:55:55.452Z,35.34
2022-12-18T22:58:40.376Z,36.46
2022-12-18T23:01:25.278Z,35.61
2022-12-18T23:04:10.504Z,35.02
2022-12-18T23:06:55.580Z,35.76
2022-12-18T23:09:40.505Z,34.98
2022-12-18T23:12:25.362Z,36.77
2022-12-18T23:15:10.326Z,35.88
2022-12-18T23:17:55.343Z,34.85
2022-12-18T23:20:40.264Z,35.38
2022-12-18T23:23:26.704Z,34.34
2022-12-18T23:26:11.726Z,34.86
2022-12-18T23:28:56.639Z,35.11
2022-12-18T23:31:41.707Z,34.44
2022-12-18T23:34:27.229Z,35.97
2022-12-18T23:37:12.232Z,34.76
2022-12-18T23:39:57.198Z,33.65
2022-12-18T23:42:42.206Z,35.84
2022-12-18T23:45:27.173Z,35.72
2022-12-18T23:48:12.032Z,33.50
2022-12-18T23:50:56.925Z,36.04
2022-12-18T23:53:41.869Z,35.41
2022-12-18T23:56:26.936Z,35.05
2022-12-18T23:59:11.870Z,35.01
